createdAt,value
2023-04-05T00:02:14.045Z,1.72
2023-04-05T00:04:50.215Z,1.81
2023-04-05T00:07:17.456Z,1.78
2023-04-05T00:09:43.971Z,1.69
2023-04-05T00:12:10.631Z,1.59
2023-04-05T00:14:37.099Z,1.50
2023-04-05T00:17:04.217Z,1.52
2023-04-05T00:19:33.699Z,1.64
2023-04-05T00:22:00.775Z,1.78
2023-04-05T00:24:29.424Z,1.88
2023-04-05T00:26:56.727Z,1.89
2023-04-05T00:29:23.427Z,1.74
2023-04-05T00:31:50.247Z,1.57
2023-04-05T00:34:16.775Z,1.38
2023-04-05T00:36:43.329Z,1.32
2023-04-05T00:39:09.794Z,1.31
2023-04-05T00:41:36.662Z,1.30
2023-04-05T00:44:03.869Z,1.32
2023-04-05T00:46:34.382Z,1.32
2023-04-05T00:49:00.896Z,1.32
2023-04-05T00:51:27.659Z,1.23
2023-04-05T00:53:55.056Z,1.05
2023-04-05T00:56:22.906Z,0.96
2023-04-05T00:58:53.152Z,0.84
2023-04-05T01:01:22.593Z,0.76
2023-04-05T01:03:55.375Z,0.72
2023-04-05T01:06:48.103Z,0.78
2023-04-05T01:09:45.722Z,0.81
2023-04-05T01:12:17.884Z,0.97
2023-04-05T01:14:51.868Z,1.02
2023-04-05T01:17:28.004Z,1.08
2023-04-05T01:20:03.842Z,1.04
2023-04-05T01:22:37.908Z,1.05
2023-04-05T01:25:45.087Z,0.81
2023-04-05T01:28:58.878Z,0.82
2023-04-05T01:31:46.181Z,0.78
2023-04-05T01:34:31.112Z,0.63
2023-04-05T01:37:07.402Z,0.68
2023-04-05T01:39:36.953Z,0.71
2023-04-05T01:42:04.298Z,0.54
2023-04-05T01:44:31.280Z,0.34
2023-04-05T01:46:57.815Z,0.32
2023-04-05T01:49:24.769Z,0.46
2023-04-05T01:51:51.305Z,0.53
2023-04-05T01:54:17.739Z,0.51
2023-04-05T01:56:44.600Z,0.51
2023-04-05T01:59:11.157Z,0.24
2023-04-05T02:01:37.662Z,0.22
2023-04-05T02:04:04.195Z,0.32
2023-04-05T02:06:31.977Z,0.36
2023-04-05T02:08:58.433Z,0.42
2023-04-05T02:11:24.977Z,0.35
2023-04-05T02:13:51.488Z,0.22
2023-04-05T02:16:18.398Z,-0.01
2023-04-05T02:18:50.659Z,-0.02
2023-04-05T02:21:17.151Z,0.02
2023-04-05T02:23:44.022Z,0.05
2023-04-05T02:26:10.732Z,0.07
2023-04-05T02:28:37.244Z,-0.07
2023-04-05T02:31:12.515Z,-0.12
2023-04-05T02:33:40.221Z,-0.08
2023-04-05T02:36:09.462Z,-0.14
2023-04-05T02:38:36.175Z,-0.13
2023-04-05T02:41:03.185Z,-0.02
2023-04-05T02:43:29.966Z,0.02
2023-04-05T02:45:56.445Z,-0.02
2023-04-05T02:48:22.968Z,0.04
2023-04-05T02:50:51.433Z,-0.03
2023-04-05T02:53:18.852Z,0.00
2023-04-05T02:55:56.783Z,-0.02
2023-04-05T02:58:28.382Z,-0.01
2023-04-05T03:00:56.070Z,-0.16
2023-04-05T03:03:23.482Z,-0.24
2023-04-05T03:06:10.757Z,-0.39
2023-04-05T03:08:39.354Z,-0.27
2023-04-05T03:11:06.773Z,-0.37
2023-04-05T03:13:37.021Z,-0.40
2023-04-05T03:16:13.778Z,-0.36
2023-04-05T03:18:40.133Z,-0.63
2023-04-05T03:21:11.982Z,-0.39
2023-04-05T03:23:38.548Z,-0.46
2023-04-05T03:26:05.188Z,-0.55
2023-04-05T03:28:34.583Z,-0.49
2023-04-05T03:31:05.851Z,-0.44
2023-04-05T03:33:37.816Z,-0.35
2023-04-05T03:36:06.164Z,-0.43
2023-04-05T03:38:32.660Z,-0.41
2023-04-05T03:40:59.190Z,-0.47
2023-04-05T03:43:25.671Z,-0.45
2023-04-05T03:45:52.640Z,-0.52
2023-04-05T03:48:21.898Z,-0.52
2023-04-05T03:50:48.480Z,-0.52
2023-04-05T03:53:19.983Z,-0.65
2023-04-05T03:55:50.229Z,-0.69
2023-04-05T03:58:17.315Z,-0.69
2023-04-05T04:00:43.866Z,-0.81
2023-04-05T04:03:10.565Z,-0.81
2023-04-05T04:05:39.327Z,-0.87
2023-04-05T04:08:06.448Z,-0.98
2023-04-05T04:10:34.396Z,-1.01
2023-04-05T04:13:00.844Z,-1.01
2023-04-05T04:15:27.550Z,-1.01
2023-04-05T04:17:54.157Z,-1.18
2023-04-05T04:20:21.234Z,-1.20
2023-04-05T04:22:49.864Z,-1.15
2023-04-05T04:25:18.645Z,-1.02
2023-04-05T04:27:46.488Z,-0.94
2023-04-05T04:30:18.601Z,-1.00
2023-04-05T04:33:06.634Z,-1.06
2023-04-05T04:35:40.874Z,-1.27
2023-04-05T04:38:08.390Z,-1.29
2023-04-05T04:40:41.075Z,-1.32
2023-04-05T04:43:17.049Z,-1.24
2023-04-05T04:45:47.190Z,-1.37
2023-04-05T04:48:16.411Z,-1.48
2023-04-05T04:50:44.143Z,-1.53
2023-04-05T04:53:11.905Z,-1.45
2023-04-05T04:55:44.497Z,-1.28
2023-04-05T04:58:19.553Z,-1.23
2023-04-05T05:00:46.790Z,-1.35
2023-04-05T05:03:14.041Z,-1.37
2023-04-05T05:05:47.207Z,-1.48
2023-04-05T05:08:14.556Z,-1.42
2023-04-05T05:10:41.531Z,-1.41
2023-04-05T05:13:08.497Z,-1.48
2023-04-05T05:15:35.054Z,-1.46
2023-04-05T05:18:01.605Z,-1.34
2023-04-05T05:20:28.476Z,-1.25
2023-04-05T05:22:56.085Z,-1.28
2023-04-05T05:25:22.873Z,-1.41
2023-04-05T05:27:53.647Z,-1.44
2023-04-05T05:30:20.981Z,-1.49
2023-04-05T05:32:55.872Z,-1.47
2023-04-05T05:35:22.398Z,-1.43
2023-04-05T05:37:48.886Z,-1.34
2023-04-05T05:40:16.218Z,-1.34
2023-04-05T05:42:42.713Z,-1.22
2023-04-05T05:45:10.192Z,-1.11
2023-04-05T05:47:36.979Z,-1.15
2023-04-05T05:50:04.224Z,-1.22
2023-04-05T05:52:31.444Z,-1.20
2023-04-05T05:54:57.934Z,-1.15
2023-04-05T05:57:24.432Z,-1.05
2023-04-05T05:59:50.960Z,-0.91
2023-04-05T06:02:17.476Z,-0.81
2023-04-05T06:04:44.091Z,-0.74
2023-04-05T06:07:11.027Z,-0.72
2023-04-05T06:09:37.934Z,-0.80
2023-04-05T06:12:04.506Z,-0.81
2023-04-05T06:14:31.225Z,-0.74
2023-04-05T06:16:59.287Z,-0.74
2023-04-05T06:19:27.013Z,-0.72
2023-04-05T06:21:54.915Z,-0.66
2023-04-05T06:24:21.461Z,-0.69
2023-04-05T06:26:47.894Z,-0.72
2023-04-05T06:29:14.426Z,-0.69
2023-04-05T06:31:42.552Z,-0.67
2023-04-05T06:34:09.243Z,-0.63
2023-04-05T06:36:35.872Z,-0.58
2023-04-05T06:39:02.299Z,-0.50
2023-04-05T06:41:28.781Z,-0.42
2023-04-05T06:43:56.301Z,-0.22
2023-04-05T06:46:23.338Z,-0.14
2023-04-05T06:48:50.574Z,-0.23
2023-04-05T06:51:17.266Z,-0.15
2023-04-05T06:53:43.924Z,-0.07
2023-04-05T06:56:10.873Z,0.07
2023-04-05T06:58:37.408Z,0.25
2023-04-05T07:01:17.851Z,0.36
2023-04-05T07:03:47.459Z,0.47
2023-04-05T07:06:14.181Z,0.56
2023-04-05T07:08:40.894Z,0.65
2023-04-05T07:11:07.399Z,0.74
2023-04-05T07:13:34.050Z,0.85
2023-04-05T07:16:03.182Z,0.96
2023-04-05T07:18:30.203Z,1.03
2023-04-05T07:21:03.621Z,1.13
2023-04-05T07:23:30.844Z,1.34
2023-04-05T07:26:04.957Z,1.34
2023-04-05T07:28:36.113Z,1.44
2023-04-05T07:31:04.544Z,1.55
2023-04-05T07:33:31.505Z,1.70
2023-04-05T07:35:58.440Z,1.79
2023-04-05T07:38:26.996Z,1.87
2023-04-05T07:40:53.546Z,1.89
2023-04-05T07:43:20.123Z,2.01
2023-04-05T07:45:46.789Z,2.13
2023-04-05T07:48:13.264Z,2.27
2023-04-05T07:50:41.010Z,2.43
2023-04-05T07:53:08.208Z,2.53
2023-04-05T07:55:38.570Z,2.59
2023-04-05T07:58:05.235Z,2.71
2023-04-05T08:00:31.917Z,2.79
2023-04-05T08:03:01.845Z,2.89
2023-04-05T08:05:29.238Z,2.99
2023-04-05T08:07:57.993Z,3.06
2023-04-05T08:10:25.650Z,3.24
2023-04-05T08:12:52.272Z,3.33
2023-04-05T08:15:18.822Z,3.38
2023-04-05T08:17:45.360Z,3.45
2023-04-05T08:20:12.597Z,3.56
2023-04-05T08:22:42.175Z,3.48
2023-04-05T08:25:09.266Z,3.54
2023-04-05T08:27:35.766Z,3.53
2023-04-05T08:30:02.504Z,3.61
2023-04-05T08:32:32.403Z,3.75
2023-04-05T08:35:04.784Z,3.81
2023-04-05T08:37:37.130Z,3.93
2023-04-05T08:40:04.878Z,3.96
2023-04-05T08:42:51.579Z,4.00
2023-04-05T08:45:20.720Z,4.11
2023-04-05T08:47:52.229Z,4.16
2023-04-05T08:50:19.012Z,4.36
2023-04-05T08:52:50.216Z,4.37
2023-04-05T08:55:17.252Z,4.44
2023-04-05T08:57:51.178Z,4.48
2023-04-05T09:00:19.311Z,4.58
2023-04-05T09:02:53.195Z,4.57
2023-04-05T09:05:22.425Z,4.59
2023-04-05T09:07:50.346Z,4.69
2023-04-05T09:10:20.214Z,4.92
2023-04-05T09:12:47.773Z,4.94
2023-04-05T09:15:16.468Z,5.01
2023-04-05T09:17:44.025Z,5.04
2023-04-05T09:20:10.642Z,4.93
2023-04-05T09:22:47.188Z,4.91
2023-04-05T09:25:31.903Z,5.07
2023-04-05T09:27:59.876Z,5.20
2023-04-05T09:30:30.110Z,5.25
2023-04-05T09:32:57.533Z,5.39
2023-04-05T09:35:31.005Z,5.55
2023-04-05T09:38:09.730Z,5.59
2023-04-05T09:40:45.332Z,5.50
2023-04-05T09:43:14.785Z,5.66
2023-04-05T09:45:42.992Z,5.77
2023-04-05T09:48:10.151Z,5.75
2023-04-05T09:50:36.897Z,5.83
2023-04-05T09:53:16.743Z,5.55
2023-04-05T09:55:43.900Z,5.68
2023-04-05T09:58:18.862Z,5.74
2023-04-05T10:00:59.948Z,5.82
2023-04-05T10:03:48.171Z,5.92
2023-04-05T10:06:17.116Z,6.04
2023-04-05T10:08:46.910Z,6.33
2023-04-05T10:11:18.391Z,6.52
2023-04-05T10:13:47.940Z,6.44
2023-04-05T10:16:21.679Z,6.43
2023-04-05T10:18:52.374Z,6.53
2023-04-05T10:21:26.147Z,6.59
2023-04-05T10:24:09.143Z,6.64
2023-04-05T10:27:20.370Z,6.61
2023-04-05T10:30:05.725Z,6.62
2023-04-05T10:32:52.952Z,6.28
2023-04-05T10:35:50.205Z,6.54
2023-04-05T10:38:29.001Z,6.67
2023-04-05T10:41:12.740Z,6.79
2023-04-05T10:43:41.184Z,6.97
2023-04-05T10:46:08.763Z,7.17
2023-04-05T10:48:53.571Z,7.34
2023-04-05T10:51:24.168Z,7.55
2023-04-05T10:53:52.313Z,7.62
2023-04-05T10:56:22.027Z,7.55
2023-04-05T10:58:51.522Z,7.52
2023-04-05T11:01:20.623Z,7.44
2023-04-05T11:03:54.906Z,7.53
2023-04-05T11:06:32.529Z,7.64
2023-04-05T11:09:10.720Z,7.74
2023-04-05T11:11:43.929Z,7.72
2023-04-05T11:14:36.762Z,7.73
2023-04-05T11:17:04.441Z,7.83
2023-04-05T11:19:42.889Z,7.85
2023-04-05T11:22:10.346Z,7.98
2023-04-05T11:24:58.234Z,7.49
2023-04-05T11:27:28.055Z,7.52
2023-04-05T11:29:56.482Z,7.65
2023-04-05T11:32:24.056Z,7.68
2023-04-05T11:35:05.482Z,7.40
2023-04-05T11:37:55.225Z,7.32
2023-04-05T11:40:35.671Z,7.47
2023-04-05T11:43:10.683Z,7.71
2023-04-05T11:45:39.636Z,7.87
2023-04-05T11:48:10.933Z,8.13
2023-04-05T11:50:41.582Z,8.24
2023-04-05T11:53:16.505Z,8.02
2023-04-05T11:55:48.003Z,8.11
2023-04-05T11:58:25.756Z,8.09
2023-04-05T12:01:04.904Z,8.03
2023-04-05T12:03:31.825Z,8.21
2023-04-05T12:06:04.436Z,8.13
2023-04-05T12:08:49.807Z,8.12
2023-04-05T12:11:24.499Z,8.31
2023-04-05T12:13:59.357Z,8.32
2023-04-05T12:16:26.502Z,8.35
2023-04-05T12:18:58.583Z,8.35
2023-04-05T12:21:26.505Z,8.41
2023-04-05T12:23:54.301Z,8.47
2023-04-05T12:26:22.242Z,8.54
2023-04-05T12:28:57.124Z,8.56
2023-04-05T12:31:46.306Z,8.72
2023-04-05T12:34:14.874Z,8.87
2023-04-05T12:36:46.397Z,8.90
2023-04-05T12:39:13.011Z,8.98
2023-04-05T12:41:39.807Z,9.04
2023-04-05T12:44:15.956Z,8.97
2023-04-05T12:46:47.451Z,8.96
2023-04-05T12:49:18.930Z,8.94
2023-04-05T12:51:47.356Z,9.05
2023-04-05T12:54:24.106Z,9.00
2023-04-05T12:56:52.963Z,9.03
2023-04-05T12:59:19.801Z,9.12
2023-04-05T13:01:46.805Z,9.18
2023-04-05T13:04:16.617Z,9.25
2023-04-05T13:06:47.064Z,9.28
2023-04-05T13:09:13.772Z,9.26
2023-04-05T13:11:40.373Z,9.27
2023-04-05T13:14:07.443Z,9.33
2023-04-05T13:16:34.055Z,9.42
2023-04-05T13:19:00.687Z,9.54
2023-04-05T13:21:27.256Z,9.61
2023-04-05T13:23:53.701Z,9.71
2023-04-05T13:26:20.974Z,9.79
2023-04-05T13:28:47.459Z,9.75
2023-04-05T13:31:15.833Z,9.68
2023-04-05T13:33:43.375Z,9.74
2023-04-05T13:36:12.237Z,9.86
2023-04-05T13:38:38.911Z,9.97
2023-04-05T13:41:05.724Z,10.06
2023-04-05T13:43:32.252Z,10.09
2023-04-05T14:19:02.914Z,9.48
2023-04-05T14:21:29.515Z,9.59
2023-04-05T14:23:57.783Z,9.67
2023-04-05T14:26:28.332Z,9.87
2023-04-05T14:28:55.048Z,10.10
2023-04-05T14:31:25.065Z,10.27
2023-04-05T14:33:52.371Z,10.44
2023-04-05T14:36:19.042Z,10.60
2023-04-05T14:38:45.728Z,10.61
2023-04-05T14:41:12.430Z,10.79
2023-04-05T14:43:39.202Z,10.82
2023-04-05T14:46:06.224Z,10.87
2023-04-05T14:48:33.974Z,10.94
2023-04-05T14:51:00.515Z,10.47
2023-04-05T14:53:27.216Z,10.58
2023-04-05T14:55:53.826Z,10.43
2023-04-05T14:58:20.578Z,10.47
2023-04-05T15:00:49.936Z,10.56
2023-04-05T15:03:19.537Z,10.71
2023-04-05T15:05:47.627Z,10.80
2023-04-05T15:08:15.503Z,10.87
2023-04-05T15:10:43.154Z,10.82
2023-04-05T15:13:10.488Z,10.82
2023-04-05T15:15:37.714Z,10.61
2023-04-05T15:18:05.627Z,10.69
2023-04-05T15:20:32.932Z,10.75
2023-04-05T15:23:00.363Z,10.69
2023-04-05T15:25:26.922Z,10.83
2023-04-05T15:27:54.721Z,10.98
2023-04-05T15:30:22.007Z,11.17
2023-04-05T15:32:48.597Z,11.33
2023-04-05T15:35:15.452Z,11.35
2023-04-05T15:37:42.112Z,11.48
2023-04-05T15:40:09.568Z,11.52
2023-04-05T15:42:36.245Z,11.47
2023-04-05T15:45:03.008Z,11.50
2023-04-05T15:47:29.606Z,11.57
2023-04-05T15:49:56.232Z,11.75
2023-04-05T15:52:22.741Z,11.82
2023-04-05T15:54:49.244Z,11.99
2023-04-05T15:57:15.960Z,12.09
2023-04-05T15:59:42.611Z,12.28
2023-04-05T16:02:09.715Z,12.46
2023-04-05T16:04:36.400Z,12.60
2023-04-05T16:07:02.992Z,12.79
2023-04-05T16:09:29.979Z,12.36
2023-04-05T16:11:56.852Z,12.02
2023-04-05T16:14:23.468Z,12.02
2023-04-05T16:16:54.118Z,12.36
2023-04-05T16:19:21.804Z,12.49
2023-04-05T16:21:49.433Z,12.53
2023-04-05T16:24:16.140Z,12.54
2023-04-05T16:26:42.794Z,12.78
2023-04-05T16:29:09.377Z,12.83
2023-04-05T16:31:36.596Z,12.79
2023-04-05T16:34:03.473Z,12.71
2023-04-05T16:36:30.077Z,12.59
2023-04-05T16:38:56.626Z,12.46
2023-04-05T16:41:23.161Z,12.47
2023-04-05T16:43:51.062Z,12.47
2023-04-05T16:46:18.476Z,12.48
2023-04-05T16:48:45.420Z,12.29
2023-04-05T16:51:12.848Z,12.22
2023-04-05T16:53:39.481Z,12.04
2023-04-05T16:56:06.268Z,11.84
2023-04-05T16:58:32.836Z,11.73
2023-04-05T17:01:00.307Z,11.82
2023-04-05T17:03:27.315Z,11.80
2023-04-05T17:05:53.994Z,11.83
2023-04-05T17:08:20.590Z,11.78
2023-04-05T17:10:47.422Z,11.67
2023-04-05T17:13:14.910Z,11.48
2023-04-05T17:15:41.878Z,11.25
2023-04-05T17:18:08.672Z,11.08
2023-04-05T17:20:35.327Z,11.01
2023-04-05T17:23:01.896Z,10.89
2023-04-05T17:25:28.468Z,10.79
2023-04-05T17:27:55.168Z,10.59
2023-04-05T17:30:21.725Z,10.24
2023-04-05T17:32:48.325Z,9.98
2023-04-05T17:35:15.389Z,9.98
2023-04-05T17:37:41.923Z,9.97
2023-04-05T17:40:09.111Z,9.87
2023-04-05T17:42:35.767Z,9.69
2023-04-05T17:45:02.628Z,9.61
2023-04-05T17:47:29.260Z,9.57
2023-04-05T17:49:55.896Z,9.32
2023-04-05T17:52:22.759Z,9.06
2023-04-05T17:54:49.789Z,9.01
2023-04-05T17:57:16.535Z,8.94
2023-04-05T17:59:43.406Z,8.78
2023-04-05T18:02:13.414Z,8.53
2023-04-05T18:04:41.070Z,8.50
2023-04-05T18:07:08.300Z,8.37
2023-04-05T18:09:37.421Z,8.28
2023-04-05T18:12:05.413Z,8.25
2023-04-05T18:14:32.168Z,8.22
2023-04-05T18:16:59.312Z,8.13
2023-04-05T18:19:25.960Z,8.10
2023-04-05T18:21:52.544Z,8.03
2023-04-05T18:24:19.654Z,7.66
2023-04-05T18:26:46.701Z,7.33
2023-04-05T18:29:13.330Z,7.34
2023-04-05T18:31:39.984Z,7.28
2023-04-05T18:34:06.755Z,7.02
2023-04-05T18:36:33.474Z,6.95
2023-04-05T18:39:03.618Z,6.98
2023-04-05T18:41:30.547Z,6.92
2023-04-05T18:43:59.181Z,6.87
2023-04-05T18:46:26.431Z,6.58
2023-04-05T18:48:56.276Z,6.35
2023-04-05T18:51:24.549Z,6.24
2023-04-05T18:53:51.362Z,6.24
2023-04-05T18:56:18.190Z,6.26
2023-04-05T18:58:45.660Z,6.22
2023-04-05T19:01:16.928Z,6.21
2023-04-05T19:03:45.054Z,6.08
2023-04-05T19:06:12.672Z,6.07
2023-04-05T19:08:39.850Z,6.05
2023-04-05T19:11:07.503Z,6.01
2023-04-05T19:13:34.150Z,5.87
2023-04-05T19:18:27.962Z,5.51
2023-04-05T19:20:57.330Z,5.36
2023-04-05T19:23:28.759Z,5.25
2023-04-05T19:25:57.307Z,5.27
2023-04-05T19:28:25.955Z,5.07
2023-04-05T19:30:53.378Z,4.78
2023-04-05T19:33:21.712Z,4.83
2023-04-05T19:35:48.810Z,4.82
2023-04-05T19:38:15.791Z,4.83
2023-04-05T19:40:43.004Z,4.88
2023-04-05T19:43:10.228Z,4.80
2023-04-05T19:45:37.221Z,4.63
2023-04-05T19:48:46.946Z,4.62
2023-04-05T19:51:17.914Z,4.60
2023-04-05T19:53:53.646Z,4.35
2023-04-05T19:56:31.105Z,4.04
2023-04-05T19:59:09.444Z,3.79
2023-04-05T20:01:41.486Z,3.76
2023-04-05T20:04:20.593Z,3.79
2023-04-05T20:06:53.805Z,3.91
2023-04-05T20:09:26.732Z,3.76
2023-04-05T20:12:06.239Z,3.42
2023-04-05T20:14:45.883Z,3.30
2023-04-05T20:17:14.062Z,3.42
2023-04-05T20:19:57.673Z,3.42
2023-04-05T20:22:26.895Z,3.39
2023-04-05T20:24:53.562Z,3.42
2023-04-05T20:27:20.231Z,3.37
2023-04-05T20:29:46.960Z,3.28
2023-04-05T20:32:14.187Z,3.21
2023-04-05T20:34:43.794Z,3.13
2023-04-05T20:37:11.845Z,3.18
2023-04-05T20:39:38.509Z,3.24
2023-04-05T20:42:05.332Z,3.15
2023-04-05T20:44:32.035Z,3.07
2023-04-05T20:46:58.897Z,2.94
2023-04-05T20:49:26.148Z,2.73
2023-04-05T20:51:55.770Z,2.67
2023-04-05T20:54:22.682Z,2.68
2023-04-05T20:56:49.477Z,2.57
2023-04-05T20:59:16.631Z,2.44
2023-04-05T21:01:43.458Z,2.32
2023-04-05T21:04:10.624Z,2.26
2023-04-05T21:06:37.625Z,2.16
2023-04-05T21:09:04.797Z,2.18
2023-04-05T21:11:31.508Z,2.15
2023-04-05T21:13:58.212Z,2.08
2023-04-05T21:16:24.993Z,2.14
2023-04-05T21:18:51.794Z,2.02
2023-04-05T21:21:18.502Z,1.95
2023-04-05T21:23:45.451Z,1.85
2023-04-05T21:26:12.165Z,1.86
2023-04-05T21:28:38.788Z,1.74
2023-04-05T21:31:05.666Z,1.68
2023-04-05T21:33:32.365Z,1.68
2023-04-05T21:35:59.112Z,1.81
2023-04-05T21:38:25.850Z,1.95
2023-04-05T21:40:52.495Z,1.88
2023-04-05T21:43:20.865Z,1.73
2023-04-05T21:45:47.534Z,1.69
2023-04-05T21:48:14.278Z,1.73
2023-04-05T21:50:41.195Z,1.68
2023-04-05T21:53:09.637Z,1.65
2023-04-05T21:55:36.370Z,1.59
2023-04-05T21:58:03.033Z,1.49
2023-04-05T22:00:29.723Z,1.40
2023-04-05T22:02:56.493Z,1.37
2023-04-05T22:05:36.318Z,1.34
2023-04-05T22:08:05.611Z,1.35
2023-04-05T22:10:32.669Z,1.36
2023-04-05T22:12:59.321Z,1.22
2023-04-05T22:15:25.980Z,1.21
2023-04-05T22:17:52.723Z,1.30
2023-04-05T22:20:19.492Z,1.36
2023-04-05T22:22:49.090Z,1.30
2023-04-05T22:25:23.661Z,1.23
2023-04-05T22:27:50.353Z,1.17
2023-04-05T22:30:17.065Z,1.08
2023-04-05T22:32:44.298Z,1.06
2023-04-05T22:35:16.468Z,1.01
2023-04-05T22:37:43.285Z,0.92
2023-04-05T22:40:10.930Z,0.79
2023-04-05T22:42:40.076Z,0.70
2023-04-05T22:45:07.771Z,0.73
2023-04-05T22:47:42.318Z,0.89
2023-04-05T22:50:09.445Z,0.96
2023-04-05T22:52:36.326Z,0.91
2023-04-05T22:55:04.406Z,0.79
2023-04-05T22:57:35.546Z,0.71
2023-04-05T23:00:02.538Z,0.64
2023-04-05T23:02:32.118Z,0.66
2023-04-05T23:04:59.266Z,0.64
2023-04-05T23:07:26.242Z,0.59
2023-04-05T23:09:52.862Z,0.59
2023-04-05T23:12:19.524Z,0.52
2023-04-05T23:14:46.461Z,0.48
2023-04-05T23:17:13.161Z,0.52
2023-04-05T23:19:39.816Z,0.49
2023-04-05T23:22:16.511Z,0.49
2023-04-05T23:24:43.116Z,0.07
2023-04-05T23:27:09.775Z,0.36
2023-04-05T23:29:36.409Z,0.47
2023-04-05T23:32:03.140Z,0.58
2023-04-05T23:34:29.741Z,0.56
2023-04-05T23:36:56.430Z,0.47
2023-04-05T23:39:23.144Z,0.38
2023-04-05T23:41:49.784Z,0.31
2023-04-05T23:44:16.400Z,0.20
2023-04-05T23:46:43.012Z,0.16
2023-04-05T23:49:09.821Z,0.23
2023-04-05T23:51:36.541Z,0.17
2023-04-05T23:54:13.927Z,0.14
2023-04-05T23:56:51.903Z,0.18
2023-04-05T23:59:18.610Z,0.16
